Time;durP1;ratioP1;P1;durP2;ratioP2;P2;SDS_P1;SDS_P2;PMS_P1;PMS_P2;Temp;Humidity;BMP_temperature;BMP_pressure;BME280_temperature;BME280_humidity;BME280_pressure;Samples;Min_cycle;Max_cycle;Signal;HPM_P1;HPM_P2
2021/12/05 00:22:06;;;;;;;21.52;7.28;;;3.40;99.90;;;;;;4999116;28;20050;-94
2021/12/05 00:24:37;;;;;;;18.08;7.18;;;3.30;99.90;;;;;;4982436;28;20053;-94
2021/12/05 00:27:13;;;;;;;14.77;6.40;;;3.50;99.90;;;;;;4982324;28;20101;-94
2021/12/05 01:10:28;;;;;;;31.85;7.47;;;3.60;99.90;;;;;;4997917;28;20235;-94
2021/12/05 01:15:29;;;;;;;21.40;6.95;;;3.50;99.90;;;;;;4997863;28;20568;-94
2021/12/05 01:18:04;;;;;;;21.52;5.93;;;3.60;99.90;;;;;;4998071;28;20062;-94
2021/12/05 01:20:40;;;;;;;20.13;6.75;;;3.60;99.90;;;;;;4997790;28;20062;-94
2021/12/05 01:23:15;;;;;;;22.52;6.93;;;3.60;99.90;;;;;;4981983;28;20100;-95
2021/12/05 01:28:53;;;;;;;25.00;7.75;;;3.80;99.90;;;;;;4997761;28;20058;-95
2021/12/05 01:39:12;;;;;;;31.23;9.75;;;3.90;99.90;;;;;;4997590;28;20050;-94
2021/12/05 01:42:08;;;;;;;30.48;9.50;;;3.80;99.90;;;;;;5013892;28;20129;-94
2021/12/05 02:08:57;;;;;;;43.63;15.75;;;3.70;99.90;;;;;;5073870;28;20048;-94
2021/12/05 02:33:34;;;;;;;45.65;16.48;;;3.70;99.90;;;;;;5076632;28;20044;-94
2021/12/05 02:41:20;;;;;;;52.22;17.52;;;3.80;99.90;;;;;;5035606;28;20491;-93
2021/12/05 02:43:57;;;;;;;47.33;17.02;;;3.70;99.90;;;;;;5019619;28;20061;-94
2021/12/05 02:46:25;;;;;;;46.30;15.57;;;3.80;99.90;;;;;;5019231;28;20057;-93
2021/12/05 02:48:51;;;;;;;47.75;16.77;;;3.50;99.90;;;;;;5019232;28;20045;-94
2021/12/05 02:51:24;;;;;;;44.83;15.27;;;3.60;99.90;;;;;;5038849;28;20479;-93
2021/12/05 02:56:26;;;;;;;43.58;15.60;;;3.40;99.90;;;;;;5055454;28;20052;-94
2021/12/05 02:58:57;;;;;;;40.78;15.60;;;3.30;99.90;;;;;;5038921;28;20390;-94
2021/12/05 03:01:39;;;;;;;35.88;14.35;;;3.30;99.90;;;;;;5038671;28;20045;-94
2021/12/05 03:04:06;;;;;;;46.72;15.38;;;3.40;99.90;;;;;;5038786;28;20563;-94
2021/12/05 03:06:33;;;;;;;40.40;15.18;;;3.10;99.90;;;;;;5038403;28;20103;-94
2021/12/05 03:09:07;;;;;;;46.58;15.15;;;3.10;99.90;;;;;;5055575;28;20549;-94
2021/12/05 03:11:35;;;;;;;42.97;14.27;;;3.00;99.90;;;;;;5038742;28;20048;-94
2021/12/05 03:14:00;;;;;;;46.25;14.90;;;2.90;99.90;;;;;;5055348;28;20080;-94
2021/12/05 03:16:29;;;;;;;45.90;14.68;;;2.90;99.90;;;;;;5055229;28;20531;-94
2021/12/05 03:18:55;;;;;;;44.63;14.48;;;2.90;99.90;;;;;;5053689;28;20063;-95
2021/12/05 03:21:21;;;;;;;37.75;14.45;;;2.70;99.90;;;;;;5076277;28;20055;-94
2021/12/05 03:23:49;;;;;;;44.75;14.63;;;2.70;99.90;;;;;;5059415;28;20039;-94
2021/12/05 03:26:19;;;;;;;41.97;14.95;;;2.60;99.90;;;;;;5058965;28;20056;-94
2021/12/05 03:28:45;;;;;;;40.92;14.05;;;2.60;99.90;;;;;;5059256;28;20135;-93
2021/12/05 03:31:12;;;;;;;48.17;15.70;;;2.60;99.90;;;;;;5076234;28;20040;-94
2021/12/05 03:33:38;;;;;;;42.40;15.10;;;2.50;99.90;;;;;;5076216;28;20083;-94
2021/12/05 03:36:06;;;;;;;40.22;14.07;;;2.40;99.90;;;;;;5059157;28;20688;-94
2021/12/05 03:38:33;;;;;;;38.72;12.88;;;2.40;99.90;;;;;;5063015;28;20047;-94
2021/12/05 03:40:59;;;;;;;41.38;15.00;;;2.40;99.90;;;;;;5080100;28;20402;-94
2021/12/05 03:43:28;;;;;;;40.45;13.57;;;2.50;99.90;;;;;;5063474;28;20051;-94
2021/12/05 03:45:56;;;;;;;39.42;13.27;;;2.40;99.90;;;;;;5079869;28;20048;-94
2021/12/05 03:48:26;;;;;;;29.80;12.40;;;2.30;99.90;;;;;;5063505;28;20082;-94
2021/12/05 03:50:53;;;;;;;41.08;14.13;;;2.30;99.90;;;;;;5063439;28;20044;-94
2021/12/05 03:53:19;;;;;;;40.10;12.77;;;2.20;99.90;;;;;;5063444;28;20109;-95
2021/12/05 03:55:50;;;;;;;36.90;12.25;;;2.40;99.90;;;;;;5062821;28;20054;-95
2021/12/05 03:58:18;;;;;;;35.03;11.52;;;2.30;99.90;;;;;;5063192;28;20048;-95
2021/12/05 04:00:47;;;;;;;38.80;12.05;;;2.30;99.90;;;;;;5063029;28;20051;-95
2021/12/05 04:03:18;;;;;;;43.45;12.88;;;2.20;99.90;;;;;;5063072;28;20470;-95
2021/12/05 04:05:47;;;;;;;38.28;11.68;;;2.20;99.90;;;;;;5062651;28;20456;-95
2021/12/05 04:08:15;;;;;;;37.42;10.65;;;2.00;99.90;;;;;;5079667;28;20048;-94
2021/12/05 04:10:47;;;;;;;42.05;11.52;;;2.20;99.90;;;;;;5062940;28;20083;-94
2021/12/05 04:13:13;;;;;;;38.88;12.15;;;2.20;99.90;;;;;;5063082;28;20052;-95
2021/12/05 04:15:39;;;;;;;42.95;12.13;;;2.10;99.90;;;;;;5062849;28;20044;-94
2021/12/05 04:18:05;;;;;;;35.95;11.73;;;2.10;99.90;;;;;;5062502;28;20047;-94
2021/12/05 04:20:31;;;;;;;29.83;10.65;;;2.10;99.90;;;;;;5079132;28;20040;-94
2021/12/05 04:22:57;;;;;;;41.55;11.27;;;2.10;99.90;;;;;;5079231;28;20036;-94
2021/12/05 04:25:24;;;;;;;37.65;10.32;;;2.00;99.90;;;;;;5062408;28;20131;-94
2021/12/05 04:27:54;;;;;;;25.85;9.75;;;2.00;99.90;;;;;;5062318;28;20477;-95
2021/12/05 04:30:24;;;;;;;27.05;9.82;;;2.30;99.90;;;;;;5062235;28;20402;-93
2021/12/05 04:32:50;;;;;;;40.75;10.20;;;2.00;99.90;;;;;;5062520;28;20052;-94
2021/12/05 04:35:17;;;;;;;27.48;9.43;;;1.90;99.90;;;;;;5062253;28;20146;-94
2021/12/05 04:37:46;;;;;;;30.25;10.13;;;1.90;99.90;;;;;;5061742;28;20052;-94
2021/12/05 04:40:15;;;;;;;28.30;9.32;;;1.80;99.90;;;;;;5062425;28;20056;-94
2021/12/05 04:42:41;;;;;;;33.47;9.52;;;1.70;99.90;;;;;;5079066;28;20401;-94
2021/12/05 04:45:12;;;;;;;27.08;9.43;;;1.70;99.90;;;;;;5062275;28;20044;-93
2021/12/05 04:47:39;;;;;;;;;;;1.70;99.90;;;;;;5062171;28;20040;-95
2021/12/05 04:50:06;;;;;;;30.02;8.55;;;1.70;99.90;;;;;;5062318;28;20003;-94
2021/12/05 04:52:33;;;;;;;32.38;9.23;;;1.60;99.90;;;;;;5061938;28;20405;-94
2021/12/05 04:54:58;;;;;;;34.63;9.73;;;1.60;99.90;;;;;;5062399;28;20048;-94
2021/12/05 04:57:24;;;;;;;30.13;9.30;;;1.60;99.90;;;;;;5061760;28;20048;-94
2021/12/05 04:59:52;;;;;;;32.08;9.18;;;1.70;99.90;;;;;;5061613;28;20131;-94
2021/12/05 05:02:19;;;;;;;32.42;9.27;;;1.50;99.90;;;;;;5061913;28;20051;-94
2021/12/05 05:04:48;;;;;;;33.30;9.20;;;1.50;99.90;;;;;;5061907;28;20474;-95
2021/12/05 05:07:24;;;;;;;29.13;9.05;;;1.40;99.90;;;;;;5061586;28;20202;-94
2021/12/05 05:09:53;;;;;;;33.60;8.70;;;1.50;99.90;;;;;;5062009;28;20040;-94
2021/12/05 05:12:19;;;;;;;31.63;8.80;;;1.90;99.90;;;;;;5061670;28;20047;-94
2021/12/05 05:14:45;;;;;;;31.95;9.00;;;1.50;99.90;;;;;;5061771;28;20040;-94
2021/12/05 05:17:12;;;;;;;35.35;9.02;;;1.30;99.90;;;;;;5078519;28;20075;-93
2021/12/05 05:19:44;;;;;;;43.70;9.52;;;1.50;99.90;;;;;;5053539;28;20094;-94
2021/12/05 05:46:27;;;;;;;28.35;8.05;;;1.70;99.90;;;;;;5094616;28;20048;-94
2021/12/05 05:49:11;;;;;;;37.70;9.00;;;1.70;99.90;;;;;;5061012;28;20051;-93
2021/12/05 05:51:38;;;;;;;35.85;8.95;;;1.80;99.90;;;;;;5060941;28;20050;-93
2021/12/05 05:54:04;;;;;;;31.88;8.07;;;1.70;99.90;;;;;;5077895;28;20094;-94
2021/12/05 05:56:32;;;;;;;40.03;8.50;;;1.70;99.90;;;;;;5061056;28;20075;-94
2021/12/05 05:59:06;;;;;;;146.95;15.05;;;1.80;99.90;;;;;;5077357;28;20044;-93
2021/12/05 06:04:02;;;;;;;30.92;8.80;;;1.90;99.90;;;;;;5077283;28;20044;-94
2021/12/05 06:06:30;;;;;;;40.08;8.98;;;1.80;99.90;;;;;;5061149;28;20044;-94
2021/12/05 06:08:57;;;;;;;34.90;9.13;;;1.80;99.90;;;;;;5077691;28;20126;-93
2021/12/05 06:11:23;;;;;;;33.85;9.98;;;1.90;99.90;;;;;;5060570;28;20114;-94
2021/12/05 06:13:49;;;;;;;30.67;8.88;;;2.10;99.90;;;;;;5077443;28;20409;-93
2021/12/05 06:16:16;;;;;;;34.03;8.75;;;2.10;99.90;;;;;;5060458;28;20048;-94
2021/12/05 06:18:42;;;;;;;41.28;10.43;;;2.20;99.90;;;;;;5077164;28;20044;-94
2021/12/05 06:21:09;;;;;;;33.28;9.88;;;2.30;99.90;;;;;;5060614;28;20397;-95
2021/12/05 06:23:37;;;;;;;36.45;10.43;;;2.30;99.90;;;;;;5060473;28;20047;-94
2021/12/05 06:26:04;;;;;;;38.80;9.82;;;2.40;99.90;;;;;;5059925;28;20482;-94
2021/12/05 06:37:27;;;;;;;34.25;10.57;;;2.60;99.90;;;;;;5036094;28;20045;-94
2021/12/05 06:47:34;;;;;;;32.55;10.80;;;2.70;99.90;;;;;;5035855;28;20052;-93
2021/12/05 06:50:01;;;;;;;41.25;11.23;;;2.70;99.90;;;;;;5035417;28;20056;-94
2021/12/05 06:52:27;;;;;;;42.40;11.10;;;2.70;99.90;;;;;;5035815;28;20163;-94
2021/12/05 06:54:52;;;;;;;50.47;12.65;;;2.80;99.90;;;;;;5035449;28;20092;-93
2021/12/05 06:57:21;;;;;;;36.92;11.52;;;2.80;99.90;;;;;;5035363;28;20109;-94
2021/12/05 06:59:48;;;;;;;33.50;11.57;;;2.80;99.90;;;;;;5035324;28;20495;-95
2021/12/05 07:02:16;;;;;;;41.30;12.13;;;2.70;99.90;;;;;;5035394;28;20206;-94
2021/12/05 07:07:23;;;;;;;36.25;11.75;;;2.80;99.90;;;;;;5039508;28;20049;-95
2021/12/05 07:09:50;;;;;;;30.73;10.63;;;2.90;99.90;;;;;;5059660;28;20140;-94
2021/12/05 07:14:53;;;;;;;34.65;11.15;;;2.80;99.90;;;;;;5075748;28;20048;-94
2021/12/05 07:23:14;;;;;;;35.05;11.18;;;3.00;99.90;;;;;;5015321;28;20084;-94
2021/12/05 07:25:47;;;;;;;32.95;10.57;;;3.00;99.90;;;;;;5014964;28;20041;-94
2021/12/05 07:42:04;;;;;;;39.58;11.85;;;3.10;99.90;;;;;;5015383;28;20481;-93
2021/12/05 07:44:30;;;;;;;39.50;11.52;;;3.20;99.90;;;;;;4999239;28;20103;-93
2021/12/05 07:46:56;;;;;;;33.30;11.35;;;3.20;99.90;;;;;;4999147;28;20053;-94
2021/12/05 07:49:22;;;;;;;40.92;12.63;;;3.40;99.90;;;;;;4999223;28;20045;-94
2021/12/05 07:51:50;;;;;;;38.53;13.30;;;3.20;99.90;;;;;;4998747;28;20093;-94
2021/12/05 08:16:33;;;;;;;37.65;12.77;;;3.30;99.90;;;;;;4937543;28;20584;-94
2021/12/05 08:18:59;;;;;;;34.67;12.38;;;3.30;99.90;;;;;;4937512;29;20055;-95
2021/12/05 08:21:25;;;;;;;29.10;11.95;;;3.30;99.90;;;;;;4969502;28;20059;-95
2021/12/05 08:23:51;;;;;;;35.00;14.07;;;3.30;99.90;;;;;;4939730;29;20051;-94
2021/12/05 08:26:24;;;;;;;30.80;12.23;;;3.40;99.90;;;;;;4945428;28;20065;-94
2021/12/05 08:31:34;;;;;;;38.55;14.48;;;3.40;99.90;;;;;;4960343;28;20043;-94
2021/12/05 08:34:22;;;;;;;38.05;14.48;;;3.40;99.90;;;;;;4987659;28;20519;-94
2021/12/05 08:45:12;;;;;;;31.33;13.13;;;3.60;99.90;;;;;;5095697;28;20079;-94
2021/12/05 10:09:21;;;;;;;24.23;8.73;;;3.80;99.90;;;;;;4996987;28;20086;-94
2021/12/05 10:15:00;;;;;;;23.05;9.73;;;3.90;99.90;;;;;;4936013;29;20495;-94
2021/12/05 10:17:43;;;;;;;25.27;10.43;;;3.90;99.90;;;;;;4935659;29;20147;-95
2021/12/05 10:26:05;;;;;;;24.00;9.82;;;3.90;99.90;;;;;;4923562;28;20052;-94
2021/12/05 10:38:08;;;;;;;16.83;9.30;;;4.20;99.90;;;;;;4974123;28;20050;-94
2021/12/05 10:41:02;;;;;;;23.40;10.55;;;4.20;99.90;;;;;;4957966;28;20050;-94
2021/12/05 10:43:30;;;;;;;18.95;9.10;;;4.30;99.90;;;;;;4997116;28;20486;-94
2021/12/05 10:46:10;;;;;;;21.20;8.95;;;4.30;99.90;;;;;;4993369;28;20100;-94
2021/12/05 10:48:39;;;;;;;18.13;7.80;;;4.50;99.90;;;;;;4999557;28;20495;-94
2021/12/05 10:51:20;;;;;;;23.85;8.63;;;4.30;99.90;;;;;;5058078;28;20527;-94
2021/12/05 10:54:01;;;;;;;18.73;8.20;;;4.30;99.90;;;;;;5100103;27;20485;-94
2021/12/05 10:56:33;;;;;;;19.67;8.18;;;4.30;99.90;;;;;;5100539;27;20134;-94
2021/12/05 10:59:11;;;;;;;19.65;7.85;;;4.30;99.90;;;;;;5100516;27;20496;-94
2021/12/05 11:01:51;;;;;;;22.45;8.38;;;4.30;99.90;;;;;;5100560;27;20045;-94
2021/12/05 11:04:18;;;;;;;22.55;8.02;;;4.40;99.90;;;;;;5100644;27;20069;-94
2021/12/05 11:06:59;;;;;;;20.73;8.25;;;4.60;99.90;;;;;;5117206;27;20051;-94
2021/12/05 11:09:32;;;;;;;20.20;8.25;;;4.40;99.90;;;;;;5100347;27;20047;-94
2021/12/05 11:12:00;;;;;;;21.15;7.93;;;4.30;99.90;;;;;;5117076;27;20051;-94
2021/12/05 11:14:34;;;;;;;21.52;8.25;;;4.80;99.90;;;;;;5100108;27;20054;-93
2021/12/05 11:17:03;;;;;;;21.15;9.10;;;4.60;99.90;;;;;;5100339;28;20046;-94
2021/12/05 11:19:46;;;;;;;25.40;9.23;;;4.80;99.90;;;;;;5117379;27;20116;-94
2021/12/05 11:22:21;;;;;;;15.88;8.15;;;4.90;99.90;;;;;;5117055;27;20047;-94
2021/12/05 11:25:02;;;;;;;14.98;7.57;;;5.10;99.90;;;;;;5117199;28;20430;-94
2021/12/05 11:27:35;;;;;;;17.05;8.32;;;5.20;99.90;;;;;;5116489;28;20047;-94
2021/12/05 11:30:13;;;;;;;18.02;7.32;;;5.50;99.90;;;;;;5100228;28;20097;-94
2021/12/05 11:32:55;;;;;;;16.50;7.93;;;5.50;99.90;;;;;;5099826;28;20120;-93
2021/12/05 11:35:42;;;;;;;14.80;7.57;;;5.70;99.90;;;;;;5116603;28;20035;-94
2021/12/05 11:38:13;;;;;;;21.38;7.15;;;5.80;99.90;;;;;;5116745;28;20073;-94
2021/12/05 11:41:02;;;;;;;13.32;6.15;;;5.80;99.90;;;;;;5116743;28;20043;-94
2021/12/05 11:43:35;;;;;;;12.77;6.40;;;5.70;99.90;;;;;;5099379;28;20374;-95
2021/12/05 11:46:06;;;;;;;9.02;5.65;;;5.60;99.90;;;;;;5099417;28;20396;-93
2021/12/05 11:48:44;;;;;;;16.65;5.82;;;5.50;99.90;;;;;;5099545;28;20061;-94
2021/12/05 11:51:32;;;;;;;12.57;5.55;;;5.20;99.90;;;;;;5116553;28;20054;-94
2021/12/05 11:54:08;;;;;;;12.55;5.70;;;5.30;99.90;;;;;;5099256;28;20516;-94
2021/12/05 11:56:33;;;;;;;10.70;5.57;;;5.30;99.90;;;;;;5116116;28;20146;-94
2021/12/05 11:59:31;;;;;;;9.20;4.85;;;5.20;99.90;;;;;;5119534;27;20534;-93
2021/12/05 12:02:01;;;;;;;13.43;5.70;;;5.20;99.90;;;;;;5019358;28;20061;-94
2021/12/05 12:05:01;;;;;;;13.90;5.70;;;5.20;99.90;;;;;;5002714;28;20055;-94
2021/12/05 12:07:34;;;;;;;10.43;5.90;;;5.10;99.90;;;;;;4980133;28;20297;-93
2021/12/05 12:10:05;;;;;;;12.70;4.88;;;5.20;99.90;;;;;;4979627;28;20058;-94
2021/12/05 12:12:31;;;;;;;10.55;5.38;;;5.10;99.90;;;;;;4990561;28;20088;-93
2021/12/05 12:14:57;;;;;;;11.95;5.00;;;5.00;99.90;;;;;;4992432;28;20140;-92
2021/12/05 12:17:23;;;;;;;11.60;4.90;;;5.00;99.90;;;;;;4997328;28;20049;-93
2021/12/05 12:19:52;;;;;;;9.90;5.53;;;4.90;99.90;;;;;;4998314;28;20061;-93
2021/12/05 12:22:20;;;;;;;12.98;5.60;;;5.00;99.90;;;;;;4998143;28;20494;-92
2021/12/05 12:24:52;;;;;;;10.68;4.50;;;5.10;99.90;;;;;;4997945;28;20050;-93
2021/12/05 12:27:18;;;;;;;;;;;5.00;99.90;;;;;;4998450;28;20136;-93
2021/12/05 12:29:44;;;;;;;10.55;4.95;;;4.90;99.90;;;;;;4998577;28;20010;-94
2021/12/05 12:32:16;;;;;;;8.05;4.72;;;4.90;99.90;;;;;;4982081;28;20053;-93
2021/12/05 12:34:43;;;;;;;8.80;4.78;;;4.90;99.90;;;;;;4997621;28;20153;-92
2021/12/05 12:37:10;;;;;;;11.25;4.82;;;5.20;99.90;;;;;;4998934;28;20046;-92
2021/12/05 12:39:49;;;;;;;11.23;4.68;;;4.80;99.90;;;;;;5037622;28;20061;-93
2021/12/05 12:42:18;;;;;;;16.52;6.30;;;4.80;99.90;;;;;;5037206;28;20061;-94
2021/12/05 12:45:10;;;;;;;9.50;4.90;;;4.70;99.90;;;;;;5076739;27;20059;-94
2021/12/05 12:47:50;;;;;;;9.68;5.20;;;4.70;99.90;;;;;;5100982;27;20496;-94
2021/12/05 12:50:51;;;;;;;10.82;5.35;;;4.60;99.90;;;;;;5102785;27;20062;-93
2021/12/05 12:53:29;;;;;;;7.32;4.85;;;4.60;99.90;;;;;;5119336;27;20149;-93
2021/12/05 12:56:06;;;;;;;10.25;5.25;;;4.60;99.90;;;;;;5104520;27;20039;-93
2021/12/05 12:58:51;;;;;;;12.73;5.70;;;4.70;99.90;;;;;;5102464;27;20046;-91
2021/12/05 13:04:32;;;;;;;11.70;5.07;;;4.70;99.90;;;;;;5123745;27;20047;-92
2021/12/05 13:10:09;;;;;;;6.68;5.18;;;4.80;99.90;;;;;;5076166;28;20482;-93
2021/12/05 13:12:40;;;;;;;10.77;5.28;;;5.00;99.90;;;;;;5074333;28;20068;-93
2021/12/05 13:15:26;;;;;;;7.70;5.28;;;5.10;99.90;;;;;;5040496;28;20133;-92
2021/12/05 13:18:04;;;;;;;10.35;6.03;;;5.00;99.90;;;;;;5039885;28;20053;-93
2021/12/05 13:20:42;;;;;;;15.77;6.78;;;5.00;99.90;;;;;;5040540;28;20064;-94
2021/12/05 13:23:08;;;;;;;16.90;7.30;;;5.00;99.90;;;;;;5058268;28;20475;-93
2021/12/05 13:26:03;;;;;;;16.92;6.50;;;5.00;99.90;;;;;;5040075;28;20052;-91
2021/12/05 13:28:34;;;;;;;14.65;7.10;;;5.00;99.90;;;;;;5020901;28;20064;-96
2021/12/05 13:31:20;;;;;;;;;;;4.90;99.90;;;;;;5001137;28;20466;-93
2021/12/05 13:33:46;;;;;;;8.02;4.93;;;5.00;99.90;;;;;;5010917;28;20023;-93
2021/12/05 13:36:29;;;;;;;7.10;4.55;;;5.10;99.90;;;;;;4986782;28;20136;-92
2021/12/05 13:38:55;;;;;;;8.35;4.68;;;5.20;99.90;;;;;;5016336;28;20049;-93
2021/12/05 13:41:21;;;;;;;10.70;5.15;;;5.30;99.90;;;;;;5017298;28;20498;-93
2021/12/05 13:44:01;;;;;;;10.27;5.47;;;5.70;99.90;;;;;;5016371;28;20129;-94
2021/12/05 13:46:36;;;;;;;10.63;5.55;;;5.60;99.90;;;;;;5043278;28;20045;-94
2021/12/05 13:49:33;;;;;;;9.48;5.60;;;5.70;99.90;;;;;;5052676;28;20064;-92
2021/12/05 13:52:28;;;;;;;7.30;4.90;;;5.70;99.90;;;;;;5036239;28;20070;-91
2021/12/05 13:55:14;;;;;;;10.30;4.90;;;5.70;99.90;;;;;;5033974;28;20068;-93
2021/12/05 13:58:18;;;;;;;7.13;4.85;;;5.60;99.90;;;;;;5039736;28;20506;-92
2021/12/05 14:00:51;;;;;;;10.68;4.95;;;5.50;99.90;;;;;;5070431;28;20053;-90
2021/12/05 14:03:42;;;;;;;7.15;4.80;;;5.40;99.90;;;;;;5055744;28;20052;-91
2021/12/05 14:06:38;;;;;;;6.95;4.65;;;5.30;99.90;;;;;;5038646;28;20079;-92
2021/12/05 14:09:24;;;;;;;13.63;5.15;;;5.30;99.90;;;;;;5048526;28;20401;-89
2021/12/05 14:11:58;;;;;;;7.50;5.07;;;5.20;99.90;;;;;;5033356;28;20060;-92
2021/12/05 14:14:34;;;;;;;8.57;5.50;;;5.30;99.90;;;;;;5041156;28;20478;-90
2021/12/05 14:17:04;;;;;;;10.65;5.68;;;5.30;99.90;;;;;;5051686;28;20442;-90
2021/12/05 14:19:32;;;;;;;10.23;6.30;;;5.20;99.90;;;;;;5055479;28;20394;-92
2021/12/05 14:22:00;;;;;;;10.18;6.50;;;5.10;99.90;;;;;;5035378;28;20053;-93
2021/12/05 14:24:30;;;;;;;12.90;6.90;;;5.00;99.90;;;;;;5069124;28;20059;-92
2021/12/05 14:26:59;;;;;;;11.05;6.63;;;4.90;99.90;;;;;;5047717;28;20048;-93
2021/12/05 14:29:27;;;;;;;11.23;6.63;;;4.70;99.90;;;;;;5045488;28;20131;-91
2021/12/05 14:31:58;;;;;;;14.80;7.47;;;4.70;99.90;;;;;;5069140;28;20044;-92
2021/12/05 14:34:24;;;;;;;12.82;8.20;;;4.60;99.90;;;;;;5058940;28;20055;-92
2021/12/05 14:37:04;;;;;;;10.60;7.13;;;4.50;99.90;;;;;;5076449;28;20394;-94
2021/12/05 14:39:34;;;;;;;12.57;6.75;;;4.50;99.90;;;;;;5060005;28;20105;-95
2021/12/05 14:42:07;;;;;;;10.57;6.72;;;4.70;99.90;;;;;;5049082;28;20044;-93
2021/12/05 14:44:33;;;;;;;15.55;8.00;;;4.50;99.90;;;;;;5076628;28;20040;-93
2021/12/05 14:47:02;;;;;;;17.38;8.68;;;4.70;99.90;;;;;;5070089;28;20430;-91
2021/12/05 14:49:35;;;;;;;14.60;8.20;;;4.60;99.90;;;;;;5056808;28;20067;-92
2021/12/05 14:52:02;;;;;;;12.18;8.63;;;4.60;99.90;;;;;;5071332;28;20048;-93
2021/12/05 14:54:36;;;;;;;13.25;7.50;;;4.60;99.90;;;;;;5037705;28;20053;-92
2021/12/05 14:57:13;;;;;;;10.73;7.03;;;4.70;99.90;;;;;;5055450;28;20505;-91
2021/12/05 14:59:41;;;;;;;10.07;6.95;;;4.70;99.90;;;;;;5039248;28;20048;-92
2021/12/05 15:02:07;;;;;;;13.82;7.78;;;4.60;99.90;;;;;;5055955;28;20448;-92
2021/12/05 15:04:38;;;;;;;12.80;7.80;;;4.60;99.90;;;;;;5054543;28;20088;-93
2021/12/05 15:07:05;;;;;;;15.63;7.25;;;4.50;99.90;;;;;;5056539;28;20471;-91
2021/12/05 15:09:44;;;;;;;14.98;8.15;;;4.50;99.90;;;;;;5079580;28;20409;-91
2021/12/05 15:12:18;;;;;;;17.42;8.25;;;4.40;99.90;;;;;;5065357;28;20498;-91
2021/12/05 15:14:46;;;;;;;15.90;7.63;;;4.40;99.90;;;;;;5038710;28;20102;-91
2021/12/05 15:17:40;;;;;;;12.93;7.70;;;4.30;99.90;;;;;;5054099;28;20055;-91
2021/12/05 15:20:13;;;;;;;15.90;8.45;;;4.30;99.90;;;;;;5070065;28;20114;-95
2021/12/05 15:22:41;;;;;;;13.35;7.88;;;4.30;99.90;;;;;;5073414;28;20054;-94
2021/12/05 15:25:14;;;;;;;14.07;7.78;;;4.30;99.90;;;;;;5060434;28;20028;-92
2021/12/05 15:27:42;;;;;;;20.70;8.88;;;4.30;99.90;;;;;;5051002;28;20064;-93
2021/12/05 15:30:12;;;;;;;16.02;8.52;;;4.30;99.90;;;;;;5048986;28;20084;-93
2021/12/05 15:32:39;;;;;;;14.25;8.02;;;4.40;99.90;;;;;;5053792;28;20040;-93
2021/12/05 15:35:11;;;;;;;14.27;9.15;;;4.30;99.90;;;;;;5037813;28;20057;-93
2021/12/05 15:37:44;;;;;;;19.20;9.82;;;4.40;99.90;;;;;;5038868;28;20060;-93
2021/12/05 15:40:10;;;;;;;19.42;9.43;;;4.30;99.90;;;;;;5042225;28;20454;-93
2021/12/05 15:42:37;;;;;;;17.58;9.70;;;4.30;99.90;;;;;;5035366;28;20048;-93
2021/12/05 15:45:15;;;;;;;14.35;9.73;;;4.30;99.90;;;;;;5019841;28;20048;-93
2021/12/05 15:47:41;;;;;;;14.38;8.93;;;4.30;99.90;;;;;;5046480;28;20080;-93
2021/12/05 15:50:23;;;;;;;15.57;8.68;;;4.30;99.90;;;;;;5035535;28;20501;-93
2021/12/05 15:52:58;;;;;;;15.93;8.20;;;4.20;99.90;;;;;;5050201;28;20049;-93
2021/12/05 15:55:46;;;;;;;12.93;8.27;;;4.20;99.90;;;;;;5038012;28;20415;-93
2021/12/05 15:58:19;;;;;;;13.77;9.75;;;4.20;99.90;;;;;;5018360;28;20049;-94
2021/12/05 16:01:05;;;;;;;14.18;9.90;;;4.20;99.90;;;;;;5052522;28;20104;-93
2021/12/05 16:03:41;;;;;;;15.70;10.02;;;4.20;99.90;;;;;;5025728;28;20056;-93
2021/12/05 16:06:08;;;;;;;15.32;10.43;;;4.20;99.90;;;;;;5055201;28;20053;-94
2021/12/05 16:08:33;;;;;;;14.18;10.18;;;4.20;99.90;;;;;;5023630;28;20540;-94
2021/12/05 16:11:00;;;;;;;17.67;10.45;;;4.20;99.90;;;;;;5032616;28;20145;-94
2021/12/05 16:13:37;;;;;;;16.65;10.05;;;4.20;99.90;;;;;;5020822;28;20516;-94
2021/12/05 16:16:33;;;;;;;17.67;10.20;;;4.20;99.90;;;;;;5028733;28;20084;-94
2021/12/05 16:19:01;;;;;;;15.13;10.20;;;4.20;99.90;;;;;;4955665;28;20153;-94
2021/12/05 16:21:28;;;;;;;15.30;9.88;;;4.20;99.90;;;;;;4971572;28;20138;-94
2021/12/05 16:23:56;;;;;;;16.85;10.18;;;4.20;99.90;;;;;;4956109;28;20073;-94
2021/12/05 16:26:27;;;;;;;15.98;9.77;;;4.20;99.90;;;;;;4974137;28;20078;-93
2021/12/05 16:28:58;;;;;;;19.67;11.18;;;4.10;99.90;;;;;;4991466;28;20060;-92
2021/12/05 16:31:30;;;;;;;18.00;10.75;;;4.10;99.90;;;;;;4975600;28;20503;-92
2021/12/05 16:34:17;;;;;;;26.33;12.07;;;4.10;99.90;;;;;;4975553;28;20547;-92
2021/12/05 16:36:59;;;;;;;19.17;10.90;;;4.10;99.90;;;;;;4975879;28;20056;-92
2021/12/05 16:39:32;;;;;;;16.15;9.55;;;4.10;99.90;;;;;;4975812;28;20062;-92
2021/12/05 16:42:05;;;;;;;19.00;10.18;;;4.10;99.90;;;;;;4991727;28;20101;-92
2021/12/05 16:44:39;;;;;;;18.63;10.10;;;4.00;99.90;;;;;;4993476;28;20054;-92
2021/12/05 16:47:15;;;;;;;17.83;9.80;;;4.10;99.90;;;;;;4963078;28;20497;-92
2021/12/05 16:49:43;;;;;;;15.23;9.23;;;4.00;99.90;;;;;;4978935;28;20062;-92
2021/12/05 16:52:20;;;;;;;17.73;10.27;;;4.10;99.90;;;;;;4979257;28;20443;-91
2021/12/05 16:54:57;;;;;;;18.98;10.77;;;4.00;99.90;;;;;;5001861;28;20060;-91
2021/12/05 16:57:32;;;;;;;19.30;10.70;;;4.00;99.90;;;;;;5063833;28;20044;-92
2021/12/05 17:00:19;;;;;;;19.35;10.38;;;4.00;99.90;;;;;;5079074;28;20047;-92
2021/12/05 17:02:51;;;;;;;20.00;11.57;;;4.00;99.90;;;;;;5061929;28;20075;-92
2021/12/05 17:05:33;;;;;;;22.50;10.88;;;4.00;99.90;;;;;;5078246;28;20048;-93
2021/12/05 17:10:47;;;;;;;23.73;12.52;;;4.00;99.90;;;;;;5078383;28;20044;-92
2021/12/05 17:13:15;;;;;;;29.42;13.15;;;4.00;99.90;;;;;;5078561;28;20052;-92
2021/12/05 17:15:50;;;;;;;21.92;12.88;;;4.20;99.90;;;;;;5078302;28;20062;-92
2021/12/05 17:18:23;;;;;;;22.55;13.43;;;4.00;99.90;;;;;;5078648;28;20048;-91
2021/12/05 17:20:58;;;;;;;24.75;13.98;;;4.10;99.90;;;;;;5061837;28;20048;-92
2021/12/05 17:23:34;;;;;;;20.30;11.52;;;4.00;99.90;;;;;;5062346;28;20114;-92
2021/12/05 17:26:23;;;;;;;19.95;10.73;;;4.00;99.90;;;;;;5078460;28;20044;-92
2021/12/05 17:28:56;;;;;;;19.65;10.43;;;4.00;99.90;;;;;;5078399;28;20052;-92
2021/12/05 17:31:31;;;;;;;19.63;10.07;;;4.00;99.90;;;;;;5078505;28;20140;-92
2021/12/05 17:34:04;;;;;;;16.70;10.60;;;4.00;99.90;;;;;;5061375;28;20146;-92
2021/12/05 17:36:44;;;;;;;18.55;10.48;;;4.00;99.90;;;;;;5061458;28;20047;-92
2021/12/05 17:39:16;;;;;;;18.90;9.95;;;4.00;99.90;;;;;;5061215;28;20052;-91
2021/12/05 17:41:45;;;;;;;15.77;10.70;;;4.10;99.90;;;;;;5078642;28;20040;-93
2021/12/05 17:44:12;;;;;;;18.13;11.35;;;4.00;99.90;;;;;;5078094;28;20047;-92
2021/12/05 17:46:38;;;;;;;20.02;12.02;;;4.10;99.90;;;;;;5057925;28;20036;-92
2021/12/05 17:49:07;;;;;;;25.95;13.18;;;4.20;99.90;;;;;;5075609;28;20086;-93
2021/12/05 17:51:37;;;;;;;22.75;12.93;;;4.10;99.90;;;;;;5061103;28;20056;-92
2021/12/05 17:54:05;;;;;;;20.25;12.05;;;4.10;99.90;;;;;;5078506;28;20051;-92
2021/12/05 17:56:40;;;;;;;20.27;12.07;;;4.10;99.90;;;;;;5077767;28;20055;-92
2021/12/05 17:59:13;;;;;;;22.55;12.32;;;4.20;99.90;;;;;;5060971;28;20048;-92
2021/12/05 18:04:27;;;;;;;21.05;12.15;;;4.00;99.90;;;;;;5077063;28;20059;-93
2021/12/05 18:06:53;;;;;;;21.83;12.10;;;4.00;99.90;;;;;;5077073;28;20051;-92
2021/12/05 18:09:19;;;;;;;23.73;12.23;;;4.00;99.90;;;;;;5060324;28;20055;-92
2021/12/05 18:11:44;;;;;;;21.23;12.35;;;3.90;99.90;;;;;;5060735;28;20048;-92
2021/12/05 18:14:11;;;;;;;21.08;13.15;;;4.00;99.90;;;;;;5060311;28;20054;-91
2021/12/05 18:16:37;;;;;;;22.35;13.07;;;4.00;99.90;;;;;;5049094;28;20136;-92
2021/12/05 18:19:11;;;;;;;26.38;14.02;;;4.10;99.90;;;;;;5056913;28;20049;-93
2021/12/05 18:21:39;;;;;;;21.02;12.93;;;4.00;99.90;;;;;;5073895;28;20047;-92
2021/12/05 18:24:09;;;;;;;25.40;14.88;;;4.00;99.90;;;;;;5040560;28;20090;-93
2021/12/05 18:26:37;;;;;;;27.15;14.98;;;4.00;99.90;;;;;;5073443;28;20067;-92
2021/12/05 18:29:08;;;;;;;26.15;14.48;;;4.10;99.90;;;;;;5073504;28;20056;-92
2021/12/05 18:31:35;;;;;;;26.25;13.40;;;4.10;99.90;;;;;;5056716;28;20044;-92
2021/12/05 18:34:18;;;;;;;26.75;13.50;;;4.10;99.90;;;;;;5040583;28;20056;-92
2021/12/05 18:36:45;;;;;;;19.92;12.48;;;4.10;99.90;;;;;;5040400;28;20151;-92
2021/12/05 18:39:19;;;;;;;21.20;12.68;;;4.10;99.90;;;;;;5040280;28;20074;-92
2021/12/05 18:41:45;;;;;;;26.30;14.30;;;4.10;99.90;;;;;;5056830;28;20041;-92
2021/12/05 18:44:17;;;;;;;29.55;15.13;;;4.10;99.90;;;;;;5056522;28;20139;-91
2021/12/05 18:46:43;;;;;;;22.65;13.48;;;4.20;99.90;;;;;;5039425;28;20040;-92
2021/12/05 18:49:10;;;;;;;28.00;15.15;;;4.10;99.90;;;;;;5073062;28;20102;-92
2021/12/05 18:51:36;;;;;;;28.63;15.27;;;4.20;99.90;;;;;;5056956;28;20080;-92